首页
METAR-TAF:

METAR-TAF

机场 :

科希策, 斯洛伐克

纬度: 48-39-47N, 经度: 021-14-28E, 海拔: 232米

当前天气观测

该预报发布于12分钟前的17:30 UTC
风速4节,风向西
温度 7°C
湿度 70%
气压 1020 hPa
能见度10公里或以上
1500米以下无云,无积雨云

METAR: LZKZ 171730Z 26004KT CAVOK 07/02 Q1020

时间: 18:42 (17:42 UTC)

预报

该预报发布于42分钟前的17:00 UTC
预报有效从17日的 18点(UTC)到 18日的 18点(UTC)
风速5节,风向南转西南
能见度10公里或以上
1500米以下无云,无积雨云
成为
从 18日的 03点(UTC)到 18日的 05点(UTC)
风速4节,风向
能见度10公里或以上
散云层高于3000英尺
多云层高于9000英尺
短暂存在
从 18日的 04点(UTC)到 18日的 11点(UTC)
多云层高于2300英尺
小雨

TAF: LZKZ 171700Z 1718/1818 21005KT CAVOK BECMG 1803/1805 36004KT 9999 SCT030 BKN090 TEMPO 1804/1811 -RA BKN023

超过4000个机场的气象观测和天气预报(METAR&TAF报告)。

可查询的气象台以黄色和红色小点在地图上表示。

将鼠标移到小点上方,可查看气象台名称。

然后点击查看天气观测和预报。

如需切换地图:点击带黑十字的绿色按钮放大地图;点击带横线的绿色按钮缩小地图;或者点击绿色箭头查看邻近地区的地图。


METAR-TAF: